sensor_id;sensor_type;location;lat;lon;timestamp;temperature;humidity
43049;DHT22;28673;44.412;11.918;2023-03-02T00:01:29;5.10;99.90
43049;DHT22;28673;44.412;11.918;2023-03-02T00:03:55;5.20;99.90
43049;DHT22;28673;44.412;11.918;2023-03-02T00:06:25;5.20;99.90
43049;DHT22;28673;44.412;11.918;2023-03-02T00:08:51;5.20;99.90
43049;DHT22;28673;44.412;11.918;2023-03-02T00:11:17;5.20;99.90
43049;DHT22;28673;44.412;11.918;2023-03-02T00:13:43;5.20;99.90
43049;DHT22;28673;44.412;11.918;2023-03-02T00:16:09;5.30;99.90
43049;DHT22;28673;44.412;11.918;2023-03-02T00:18:35;5.30;99.90
43049;DHT22;28673;44.412;11.918;2023-03-02T00:21:00;5.30;99.90
43049;DHT22;28673;44.412;11.918;2023-03-02T00:23:26;5.30;99.90
43049;DHT22;28673;44.412;11.918;2023-03-02T00:25:52;5.30;99.90
43049;DHT22;28673;44.412;11.918;2023-03-02T00:28:18;5.30;99.90
43049;DHT22;28673;44.412;11.918;2023-03-02T00:30:44;5.40;99.90
43049;DHT22;28673;44.412;11.918;2023-03-02T00:33:10;5.30;99.90
43049;DHT22;28673;44.412;11.918;2023-03-02T00:35:40;5.30;99.90
43049;DHT22;28673;44.412;11.918;2023-03-02T00:38:06;5.30;99.90
43049;DHT22;28673;44.412;11.918;2023-03-02T00:40:34;5.40;99.90
43049;DHT22;28673;44.412;11.918;2023-03-02T00:43:00;5.30;99.90
43049;DHT22;28673;44.412;11.918;2023-03-02T00:45:26;5.40;99.90
43049;DHT22;28673;44.412;11.918;2023-03-02T00:47:52;5.30;99.90
43049;DHT22;28673;44.412;11.918;2023-03-02T00:50:17;5.40;99.90
43049;DHT22;28673;44.412;11.918;2023-03-02T00:52:43;5.40;99.90
43049;DHT22;28673;44.412;11.918;2023-03-02T00:55:09;5.40;99.90
43049;DHT22;28673;44.412;11.918;2023-03-02T00:57:35;5.40;99.90
43049;DHT22;28673;44.412;11.918;2023-03-02T01:00:03;5.40;99.90
43049;DHT22;28673;44.412;11.918;2023-03-02T01:02:36;5.40;99.90
43049;DHT22;28673;44.412;11.918;2023-03-02T01:05:09;5.40;99.90
43049;DHT22;28673;44.412;11.918;2023-03-02T01:07:35;5.40;99.90
43049;DHT22;28673;44.412;11.918;2023-03-02T01:10:01;5.50;99.90
43049;DHT22;28673;44.412;11.918;2023-03-02T01:12:26;5.50;99.90
43049;DHT22;28673;44.412;11.918;2023-03-02T01:14:52;5.50;99.90
43049;DHT22;28673;44.412;11.918;2023-03-02T01:17:18;5.50;99.90
43049;DHT22;28673;44.412;11.918;2023-03-02T01:19:46;5.50;99.90
43049;DHT22;28673;44.412;11.918;2023-03-02T01:22:13;5.50;99.90
43049;DHT22;28673;44.412;11.918;2023-03-02T01:24:39;5.50;99.90
43049;DHT22;28673;44.412;11.918;2023-03-02T01:27:05;5.50;99.90
43049;DHT22;28673;44.412;11.918;2023-03-02T01:29:33;5.60;99.90
43049;DHT22;28673;44.412;11.918;2023-03-02T01:31:59;5.60;99.90
43049;DHT22;28673;44.412;11.918;2023-03-02T01:34:25;5.60;99.90
43049;DHT22;28673;44.412;11.918;2023-03-02T01:36:50;5.60;99.90
43049;DHT22;28673;44.412;11.918;2023-03-02T01:39:16;5.60;99.90
43049;DHT22;28673;44.412;11.918;2023-03-02T01:41:44;5.60;99.90
43049;DHT22;28673;44.412;11.918;2023-03-02T01:44:45;5.60;99.90
43049;DHT22;28673;44.412;11.918;2023-03-02T01:49:59;5.60;99.90
43049;DHT22;28673;44.412;11.918;2023-03-02T01:52:32;5.60;99.90
43049;DHT22;28673;44.412;11.918;2023-03-02T01:55:01;5.60;99.90
43049;DHT22;28673;44.412;11.918;2023-03-02T01:57:32;5.60;99.90
43049;DHT22;28673;44.412;11.918;2023-03-02T02:00:02;5.60;99.90
43049;DHT22;28673;44.412;11.918;2023-03-02T02:02:38;5.60;99.90
43049;DHT22;28673;44.412;11.918;2023-03-02T02:05:12;5.50;99.90
43049;DHT22;28673;44.412;11.918;2023-03-02T02:07:40;5.50;99.90
43049;DHT22;28673;44.412;11.918;2023-03-02T02:10:08;5.50;99.90
43049;DHT22;28673;44.412;11.918;2023-03-02T02:12:34;5.50;99.90
43049;DHT22;28673;44.412;11.918;2023-03-02T02:15:01;5.50;99.90
43049;DHT22;28673;44.412;11.918;2023-03-02T02:17:30;5.50;99.90
43049;DHT22;28673;44.412;11.918;2023-03-02T02:23:40;5.50;99.90
43049;DHT22;28673;44.412;11.918;2023-03-02T02:28:32;5.60;99.90
43049;DHT22;28673;44.412;11.918;2023-03-02T02:31:32;5.60;99.90
43049;DHT22;28673;44.412;11.918;2023-03-02T02:36:54;5.60;99.90
43049;DHT22;28673;44.412;11.918;2023-03-02T02:39:25;5.60;99.90
43049;DHT22;28673;44.412;11.918;2023-03-02T02:41:56;5.60;99.90
43049;DHT22;28673;44.412;11.918;2023-03-02T02:44:24;5.60;99.90
43049;DHT22;28673;44.412;11.918;2023-03-02T02:46:50;5.60;99.90
43049;DHT22;28673;44.412;11.918;2023-03-02T02:49:36;5.60;99.90
43049;DHT22;28673;44.412;11.918;2023-03-02T02:52:04;5.60;99.90
43049;DHT22;28673;44.412;11.918;2023-03-02T02:54:32;5.60;99.90
43049;DHT22;28673;44.412;11.918;2023-03-02T02:57:00;5.60;99.90
43049;DHT22;28673;44.412;11.918;2023-03-02T02:59:31;5.60;99.90
43049;DHT22;28673;44.412;11.918;2023-03-02T03:01:59;5.60;99.90
43049;DHT22;28673;44.412;11.918;2023-03-02T03:04:29;5.70;99.90
43049;DHT22;28673;44.412;11.918;2023-03-02T03:07:00;5.70;99.90
43049;DHT22;28673;44.412;11.918;2023-03-02T03:09:27;5.60;99.90
43049;DHT22;28673;44.412;11.918;2023-03-02T03:12:03;5.70;99.90
43049;DHT22;28673;44.412;11.918;2023-03-02T03:14:38;5.70;99.90
43049;DHT22;28673;44.412;11.918;2023-03-02T03:17:05;5.60;99.90
43049;DHT22;28673;44.412;11.918;2023-03-02T03:19:44;5.60;99.90
43049;DHT22;28673;44.412;11.918;2023-03-02T03:22:13;5.70;99.90
43049;DHT22;28673;44.412;11.918;2023-03-02T03:24:41;5.60;99.90
43049;DHT22;28673;44.412;11.918;2023-03-02T03:27:11;5.70;99.90
43049;DHT22;28673;44.412;11.918;2023-03-02T03:29:43;5.70;99.90
43049;DHT22;28673;44.412;11.918;2023-03-02T03:32:12;5.70;99.90
43049;DHT22;28673;44.412;11.918;2023-03-02T03:34:38;5.70;99.90
43049;DHT22;28673;44.412;11.918;2023-03-02T03:37:29;5.70;99.90
43049;DHT22;28673;44.412;11.918;2023-03-02T03:39:55;5.70;99.90
43049;DHT22;28673;44.412;11.918;2023-03-02T03:42:21;5.70;99.90
43049;DHT22;28673;44.412;11.918;2023-03-02T03:44:49;5.70;99.90
43049;DHT22;28673;44.412;11.918;2023-03-02T03:47:15;5.70;99.90
43049;DHT22;28673;44.412;11.918;2023-03-02T03:49:41;5.70;99.90
43049;DHT22;28673;44.412;11.918;2023-03-02T03:52:08;5.70;99.90
43049;DHT22;28673;44.412;11.918;2023-03-02T03:54:34;5.70;99.90
43049;DHT22;28673;44.412;11.918;2023-03-02T03:56:59;5.70;99.90
43049;DHT22;28673;44.412;11.918;2023-03-02T03:59:26;5.70;99.90
43049;DHT22;28673;44.412;11.918;2023-03-02T04:01:58;5.70;99.90
43049;DHT22;28673;44.412;11.918;2023-03-02T04:04:30;5.70;99.90
43049;DHT22;28673;44.412;11.918;2023-03-02T04:06:58;5.70;99.90
43049;DHT22;28673;44.412;11.918;2023-03-02T04:09:25;5.70;99.90
43049;DHT22;28673;44.412;11.918;2023-03-02T04:11:54;5.70;99.90
43049;DHT22;28673;44.412;11.918;2023-03-02T04:14:22;5.70;99.90
43049;DHT22;28673;44.412;11.918;2023-03-02T04:16:49;5.70;99.90
43049;DHT22;28673;44.412;11.918;2023-03-02T04:19:15;5.70;99.90
43049;DHT22;28673;44.412;11.918;2023-03-02T04:21:46;5.80;99.90
43049;DHT22;28673;44.412;11.918;2023-03-02T04:24:16;5.70;99.90
43049;DHT22;28673;44.412;11.918;2023-03-02T04:26:44;5.70;99.90
43049;DHT22;28673;44.412;11.918;2023-03-02T04:29:11;5.80;99.90
43049;DHT22;28673;44.412;11.918;2023-03-02T04:31:38;5.70;99.90
43049;DHT22;28673;44.412;11.918;2023-03-02T04:34:04;5.70;99.90
43049;DHT22;28673;44.412;11.918;2023-03-02T04:36:34;5.70;99.90
43049;DHT22;28673;44.412;11.918;2023-03-02T04:39:04;5.70;99.90
43049;DHT22;28673;44.412;11.918;2023-03-02T04:41:30;5.70;99.90
43049;DHT22;28673;44.412;11.918;2023-03-02T04:43:56;5.80;99.90
43049;DHT22;28673;44.412;11.918;2023-03-02T04:46:24;5.80;99.90
43049;DHT22;28673;44.412;11.918;2023-03-02T04:48:51;5.70;99.90
43049;DHT22;28673;44.412;11.918;2023-03-02T04:51:20;5.80;99.90
43049;DHT22;28673;44.412;11.918;2023-03-02T04:53:56;5.80;99.90
43049;DHT22;28673;44.412;11.918;2023-03-02T04:56:22;5.80;99.90
43049;DHT22;28673;44.412;11.918;2023-03-02T04:58:49;5.80;99.90
43049;DHT22;28673;44.412;11.918;2023-03-02T05:01:17;5.80;99.90
43049;DHT22;28673;44.412;11.918;2023-03-02T05:03:43;5.80;99.90
43049;DHT22;28673;44.412;11.918;2023-03-02T05:06:09;5.80;99.90
43049;DHT22;28673;44.412;11.918;2023-03-02T05:08:36;5.80;99.90
43049;DHT22;28673;44.412;11.918;2023-03-02T05:11:02;5.80;99.90
43049;DHT22;28673;44.412;11.918;2023-03-02T05:13:29;5.80;99.90
43049;DHT22;28673;44.412;11.918;2023-03-02T05:15:54;5.80;99.90
43049;DHT22;28673;44.412;11.918;2023-03-02T05:18:22;5.80;99.90
43049;DHT22;28673;44.412;11.918;2023-03-02T05:20:49;5.80;99.90
43049;DHT22;28673;44.412;11.918;2023-03-02T05:23:16;5.80;99.90
43049;DHT22;28673;44.412;11.918;2023-03-02T05:25:50;5.80;99.90
43049;DHT22;28673;44.412;11.918;2023-03-02T05:28:16;5.80;99.90
43049;DHT22;28673;44.412;11.918;2023-03-02T05:30:42;5.80;99.90
43049;DHT22;28673;44.412;11.918;2023-03-02T05:33:08;5.80;99.90
43049;DHT22;28673;44.412;11.918;2023-03-02T05:35:35;5.70;99.90
43049;DHT22;28673;44.412;11.918;2023-03-02T05:38:01;5.70;99.90
43049;DHT22;28673;44.412;11.918;2023-03-02T05:40:26;5.80;99.90
43049;DHT22;28673;44.412;11.918;2023-03-02T05:42:52;5.80;99.90
43049;DHT22;28673;44.412;11.918;2023-03-02T05:45:22;5.80;99.90
43049;DHT22;28673;44.412;11.918;2023-03-02T05:47:49;5.80;99.90
43049;DHT22;28673;44.412;11.918;2023-03-02T05:50:15;5.80;99.90
43049;DHT22;28673;44.412;11.918;2023-03-02T05:52:41;5.80;99.90
43049;DHT22;28673;44.412;11.918;2023-03-02T05:55:07;5.80;99.90
43049;DHT22;28673;44.412;11.918;2023-03-02T05:57:33;5.80;99.90
43049;DHT22;28673;44.412;11.918;2023-03-02T05:59:59;5.80;99.90
43049;DHT22;28673;44.412;11.918;2023-03-02T06:02:25;5.80;99.90
43049;DHT22;28673;44.412;11.918;2023-03-02T06:04:50;5.80;99.90
43049;DHT22;28673;44.412;11.918;2023-03-02T06:07:16;5.80;99.90
43049;DHT22;28673;44.412;11.918;2023-03-02T06:09:42;5.80;99.90
43049;DHT22;28673;44.412;11.918;2023-03-02T06:12:08;5.80;99.90
43049;DHT22;28673;44.412;11.918;2023-03-02T06:14:35;5.80;99.90
43049;DHT22;28673;44.412;11.918;2023-03-02T06:17:01;5.80;99.90
43049;DHT22;28673;44.412;11.918;2023-03-02T06:19:26;5.80;99.90
43049;DHT22;28673;44.412;11.918;2023-03-02T06:21:52;5.80;99.90
43049;DHT22;28673;44.412;11.918;2023-03-02T06:24:18;5.80;99.90
43049;DHT22;28673;44.412;11.918;2023-03-02T06:26:44;5.80;99.90
43049;DHT22;28673;44.412;11.918;2023-03-02T06:29:10;5.80;99.90
43049;DHT22;28673;44.412;11.918;2023-03-02T06:31:36;5.80;99.90
43049;DHT22;28673;44.412;11.918;2023-03-02T06:34:02;5.80;99.90
43049;DHT22;28673;44.412;11.918;2023-03-02T06:36:28;5.80;99.90
43049;DHT22;28673;44.412;11.918;2023-03-02T06:38:54;5.80;99.90
43049;DHT22;28673;44.412;11.918;2023-03-02T06:41:20;5.80;99.90
43049;DHT22;28673;44.412;11.918;2023-03-02T06:43:46;5.80;99.90
43049;DHT22;28673;44.412;11.918;2023-03-02T06:46:12;5.80;99.90
43049;DHT22;28673;44.412;11.918;2023-03-02T06:48:38;5.80;99.90
43049;DHT22;28673;44.412;11.918;2023-03-02T06:51:04;5.80;99.90
43049;DHT22;28673;44.412;11.918;2023-03-02T06:53:30;5.80;99.90
43049;DHT22;28673;44.412;11.918;2023-03-02T06:55:56;5.80;99.90
43049;DHT22;28673;44.412;11.918;2023-03-02T06:58:22;5.80;99.90
43049;DHT22;28673;44.412;11.918;2023-03-02T07:00:48;5.80;99.90
43049;DHT22;28673;44.412;11.918;2023-03-02T07:03:14;5.80;99.90
43049;DHT22;28673;44.412;11.918;2023-03-02T07:05:40;5.80;99.90
43049;DHT22;28673;44.412;11.918;2023-03-02T07:08:06;5.80;99.90
43049;DHT22;28673;44.412;11.918;2023-03-02T07:10:32;5.90;99.90
43049;DHT22;28673;44.412;11.918;2023-03-02T07:12:58;5.90;99.90
43049;DHT22;28673;44.412;11.918;2023-03-02T07:15:24;5.90;99.90
43049;DHT22;28673;44.412;11.918;2023-03-02T07:17:50;5.90;99.90
43049;DHT22;28673;44.412;11.918;2023-03-02T07:20:17;5.90;99.90
43049;DHT22;28673;44.412;11.918;2023-03-02T07:22:43;5.90;99.90
43049;DHT22;28673;44.412;11.918;2023-03-02T07:25:10;5.90;99.90
43049;DHT22;28673;44.412;11.918;2023-03-02T07:27:37;5.90;99.90
43049;DHT22;28673;44.412;11.918;2023-03-02T07:30:04;6.00;99.90
43049;DHT22;28673;44.412;11.918;2023-03-02T07:32:30;6.00;99.90
43049;DHT22;28673;44.412;11.918;2023-03-02T07:34:56;6.00;99.90
43049;DHT22;28673;44.412;11.918;2023-03-02T07:37:22;6.00;99.90
43049;DHT22;28673;44.412;11.918;2023-03-02T07:39:48;6.00;99.90
43049;DHT22;28673;44.412;11.918;2023-03-02T07:42:15;6.00;99.90
43049;DHT22;28673;44.412;11.918;2023-03-02T07:44:45;6.10;99.90
43049;DHT22;28673;44.412;11.918;2023-03-02T07:47:11;6.10;99.90
43049;DHT22;28673;44.412;11.918;2023-03-02T07:49:37;6.10;99.90
43049;DHT22;28673;44.412;11.918;2023-03-02T07:52:03;6.10;99.90
43049;DHT22;28673;44.412;11.918;2023-03-02T07:54:29;6.10;99.90
43049;DHT22;28673;44.412;11.918;2023-03-02T07:56:56;6.10;99.90
43049;DHT22;28673;44.412;11.918;2023-03-02T07:59:23;6.20;99.90
43049;DHT22;28673;44.412;11.918;2023-03-02T08:01:49;6.20;99.90
43049;DHT22;28673;44.412;11.918;2023-03-02T08:04:15;6.20;99.90
43049;DHT22;28673;44.412;11.918;2023-03-02T08:06:41;6.30;99.90
43049;DHT22;28673;44.412;11.918;2023-03-02T08:09:07;6.30;99.90
43049;DHT22;28673;44.412;11.918;2023-03-02T08:11:33;6.30;99.90
43049;DHT22;28673;44.412;11.918;2023-03-02T08:14:01;6.40;99.90
43049;DHT22;28673;44.412;11.918;2023-03-02T08:16:28;6.40;99.90
43049;DHT22;28673;44.412;11.918;2023-03-02T08:18:55;6.40;99.90
43049;DHT22;28673;44.412;11.918;2023-03-02T08:21:22;6.40;99.90
43049;DHT22;28673;44.412;11.918;2023-03-02T08:23:49;6.50;99.90
43049;DHT22;28673;44.412;11.918;2023-03-02T08:26:16;6.60;99.90
43049;DHT22;28673;44.412;11.918;2023-03-02T08:28:43;6.70;99.90
43049;DHT22;28673;44.412;11.918;2023-03-02T08:31:09;6.70;99.90
43049;DHT22;28673;44.412;11.918;2023-03-02T08:33:36;6.80;99.90
43049;DHT22;28673;44.412;11.918;2023-03-02T08:36:07;6.90;99.90
43049;DHT22;28673;44.412;11.918;2023-03-02T08:38:34;6.90;99.90
43049;DHT22;28673;44.412;11.918;2023-03-02T08:41:05;7.00;99.90
43049;DHT22;28673;44.412;11.918;2023-03-02T08:43:32;7.10;99.90
43049;DHT22;28673;44.412;11.918;2023-03-02T08:45:59;7.20;99.90
43049;DHT22;28673;44.412;11.918;2023-03-02T08:48:26;7.20;99.90
43049;DHT22;28673;44.412;11.918;2023-03-02T08:53:27;7.30;99.90
43049;DHT22;28673;44.412;11.918;2023-03-02T08:55:53;7.40;99.90
43049;DHT22;28673;44.412;11.918;2023-03-02T08:58:19;7.50;99.90
43049;DHT22;28673;44.412;11.918;2023-03-02T09:00:45;7.60;99.90
43049;DHT22;28673;44.412;11.918;2023-03-02T09:03:11;7.60;99.90
43049;DHT22;28673;44.412;11.918;2023-03-02T09:05:37;7.80;99.90
43049;DHT22;28673;44.412;11.918;2023-03-02T09:08:05;7.80;99.90
43049;DHT22;28673;44.412;11.918;2023-03-02T09:10:31;8.00;99.90
43049;DHT22;28673;44.412;11.918;2023-03-02T09:12:57;8.10;99.90
43049;DHT22;28673;44.412;11.918;2023-03-02T09:15:23;8.20;99.90
43049;DHT22;28673;44.412;11.918;2023-03-02T09:17:49;8.20;99.90
43049;DHT22;28673;44.412;11.918;2023-03-02T09:20:16;8.30;99.90
43049;DHT22;28673;44.412;11.918;2023-03-02T09:22:42;8.30;99.90
43049;DHT22;28673;44.412;11.918;2023-03-02T09:25:14;8.40;99.90
43049;DHT22;28673;44.412;11.918;2023-03-02T09:27:43;8.40;99.90
43049;DHT22;28673;44.412;11.918;2023-03-02T09:30:09;8.50;99.90
43049;DHT22;28673;44.412;11.918;2023-03-02T09:32:35;8.50;99.90
43049;DHT22;28673;44.412;11.918;2023-03-02T09:35:01;8.50;99.90
43049;DHT22;28673;44.412;11.918;2023-03-02T09:37:30;8.60;99.90
43049;DHT22;28673;44.412;11.918;2023-03-02T09:39:56;8.70;99.90
43049;DHT22;28673;44.412;11.918;2023-03-02T09:51:06;8.90;99.90
43049;DHT22;28673;44.412;11.918;2023-03-02T09:53:43;8.90;99.90
43049;DHT22;28673;44.412;11.918;2023-03-02T09:56:16;8.90;99.90
43049;DHT22;28673;44.412;11.918;2023-03-02T09:58:44;8.80;99.90
43049;DHT22;28673;44.412;11.918;2023-03-02T10:01:15;8.80;99.90
43049;DHT22;28673;44.412;11.918;2023-03-02T10:04:06;8.80;99.90
43049;DHT22;28673;44.412;11.918;2023-03-02T10:06:34;8.80;99.90
43049;DHT22;28673;44.412;11.918;2023-03-02T10:08:59;8.80;99.90
43049;DHT22;28673;44.412;11.918;2023-03-02T10:11:41;8.80;99.90
43049;DHT22;28673;44.412;11.918;2023-03-02T10:14:43;8.80;99.90
43049;DHT22;28673;44.412;11.918;2023-03-02T10:19:54;8.70;99.90
43049;DHT22;28673;44.412;11.918;2023-03-02T10:22:32;8.70;99.90
43049;DHT22;28673;44.412;11.918;2023-03-02T10:25:25;8.70;99.90
43049;DHT22;28673;44.412;11.918;2023-03-02T10:30:42;8.60;99.90
43049;DHT22;28673;44.412;11.918;2023-03-02T10:33:15;8.60;99.90
43049;DHT22;28673;44.412;11.918;2023-03-02T10:35:47;8.60;99.90
43049;DHT22;28673;44.412;11.918;2023-03-02T10:38:17;8.60;99.90
43049;DHT22;28673;44.412;11.918;2023-03-02T10:40:47;8.60;99.90
43049;DHT22;28673;44.412;11.918;2023-03-02T10:43:34;8.60;99.90
43049;DHT22;28673;44.412;11.918;2023-03-02T10:46:03;8.60;99.90
43049;DHT22;28673;44.412;11.918;2023-03-02T10:48:29;8.60;99.90
43049;DHT22;28673;44.412;11.918;2023-03-02T10:50:57;8.60;99.90
43049;DHT22;28673;44.412;11.918;2023-03-02T10:53:23;8.60;99.90
43049;DHT22;28673;44.412;11.918;2023-03-02T10:55:51;8.60;99.90
43049;DHT22;28673;44.412;11.918;2023-03-02T10:58:22;8.60;99.90
43049;DHT22;28673;44.412;11.918;2023-03-02T11:01:14;8.60;99.90
43049;DHT22;28673;44.412;11.918;2023-03-02T11:03:40;8.60;99.90
43049;DHT22;28673;44.412;11.918;2023-03-02T11:06:17;8.60;99.90
43049;DHT22;28673;44.412;11.918;2023-03-02T11:08:43;8.60;99.90
43049;DHT22;28673;44.412;11.918;2023-03-02T11:11:23;8.60;99.90
43049;DHT22;28673;44.412;11.918;2023-03-02T11:13:49;8.60;99.90
43049;DHT22;28673;44.412;11.918;2023-03-02T11:18:54;8.70;99.90
43049;DHT22;28673;44.412;11.918;2023-03-02T11:24:20;8.80;99.90
43049;DHT22;28673;44.412;11.918;2023-03-02T11:26:51;8.70;99.90
43049;DHT22;28673;44.412;11.918;2023-03-02T11:29:32;8.70;99.90
43049;DHT22;28673;44.412;11.918;2023-03-02T11:32:12;8.80;99.90
43049;DHT22;28673;44.412;11.918;2023-03-02T11:37:39;8.80;99.90
43049;DHT22;28673;44.412;11.918;2023-03-02T11:40:44;8.80;99.90
43049;DHT22;28673;44.412;11.918;2023-03-02T11:43:11;8.80;99.90
43049;DHT22;28673;44.412;11.918;2023-03-02T11:45:46;8.80;99.90
43049;DHT22;28673;44.412;11.918;2023-03-02T11:51:12;8.70;99.90
43049;DHT22;28673;44.412;11.918;2023-03-02T11:53:45;8.70;99.90
43049;DHT22;28673;44.412;11.918;2023-03-02T11:56:14;8.70;99.90
43049;DHT22;28673;44.412;11.918;2023-03-02T11:58:42;8.70;99.90
43049;DHT22;28673;44.412;11.918;2023-03-02T12:01:27;8.80;99.90
43049;DHT22;28673;44.412;11.918;2023-03-02T12:04:04;8.80;99.90
43049;DHT22;28673;44.412;11.918;2023-03-02T12:06:37;8.80;99.90
43049;DHT22;28673;44.412;11.918;2023-03-02T12:09:23;8.80;99.90
43049;DHT22;28673;44.412;11.918;2023-03-02T12:14:44;8.80;99.90
43049;DHT22;28673;44.412;11.918;2023-03-02T12:20:17;8.90;99.90
43049;DHT22;28673;44.412;11.918;2023-03-02T12:22:46;8.90;99.90
43049;DHT22;28673;44.412;11.918;2023-03-02T12:27:46;8.90;99.90
43049;DHT22;28673;44.412;11.918;2023-03-02T12:32:57;8.90;99.90
43049;DHT22;28673;44.412;11.918;2023-03-02T12:35:23;9.00;99.90
43049;DHT22;28673;44.412;11.918;2023-03-02T12:37:55;8.90;99.90
43049;DHT22;28673;44.412;11.918;2023-03-02T12:48:45;8.90;99.90
43049;DHT22;28673;44.412;11.918;2023-03-02T12:51:21;8.90;99.90
43049;DHT22;28673;44.412;11.918;2023-03-02T12:53:48;8.90;99.90
43049;DHT22;28673;44.412;11.918;2023-03-02T12:56:22;8.90;99.90
43049;DHT22;28673;44.412;11.918;2023-03-02T12:58:49;8.90;99.90
43049;DHT22;28673;44.412;11.918;2023-03-02T13:01:25;8.90;99.90
43049;DHT22;28673;44.412;11.918;2023-03-02T13:03:52;8.90;99.90
43049;DHT22;28673;44.412;11.918;2023-03-02T13:06:18;9.00;99.90
43049;DHT22;28673;44.412;11.918;2023-03-02T13:08:47;9.00;99.90
43049;DHT22;28673;44.412;11.918;2023-03-02T13:11:24;9.00;99.90
43049;DHT22;28673;44.412;11.918;2023-03-02T13:13:51;9.10;99.90
43049;DHT22;28673;44.412;11.918;2023-03-02T13:18:52;9.20;99.90
43049;DHT22;28673;44.412;11.918;2023-03-02T13:21:31;9.20;99.90
43049;DHT22;28673;44.412;11.918;2023-03-02T13:23:57;9.30;99.90
43049;DHT22;28673;44.412;11.918;2023-03-02T13:26:33;9.30;99.90
43049;DHT22;28673;44.412;11.918;2023-03-02T13:29:05;9.40;99.90
43049;DHT22;28673;44.412;11.918;2023-03-02T13:31:33;9.40;99.90
43049;DHT22;28673;44.412;11.918;2023-03-02T13:33:59;9.40;99.90
43049;DHT22;28673;44.412;11.918;2023-03-02T13:36:34;9.40;99.90
43049;DHT22;28673;44.412;11.918;2023-03-02T13:39:01;9.40;99.90
43049;DHT22;28673;44.412;11.918;2023-03-02T13:41:33;9.40;99.90
43049;DHT22;28673;44.412;11.918;2023-03-02T13:44:15;9.40;99.90
43049;DHT22;28673;44.412;11.918;2023-03-02T13:47:02;9.40;99.90
43049;DHT22;28673;44.412;11.918;2023-03-02T13:49:31;9.40;99.90
43049;DHT22;28673;44.412;11.918;2023-03-02T13:52:04;9.40;99.90
43049;DHT22;28673;44.412;11.918;2023-03-02T13:54:34;9.40;99.90
43049;DHT22;28673;44.412;11.918;2023-03-02T13:57:01;9.40;99.90
43049;DHT22;28673;44.412;11.918;2023-03-02T13:59:29;9.50;99.90
43049;DHT22;28673;44.412;11.918;2023-03-02T14:01:57;9.50;99.90
43049;DHT22;28673;44.412;11.918;2023-03-02T14:04:23;9.50;99.90
43049;DHT22;28673;44.412;11.918;2023-03-02T14:06:51;9.60;99.90
43049;DHT22;28673;44.412;11.918;2023-03-02T14:09:17;9.60;99.90
43049;DHT22;28673;44.412;11.918;2023-03-02T14:11:46;9.60;99.90
43049;DHT22;28673;44.412;11.918;2023-03-02T14:14:16;9.60;99.90
43049;DHT22;28673;44.412;11.918;2023-03-02T14:16:42;9.60;99.90
43049;DHT22;28673;44.412;11.918;2023-03-02T14:19:12;9.60;99.90
43049;DHT22;28673;44.412;11.918;2023-03-02T14:21:38;9.60;99.90
43049;DHT22;28673;44.412;11.918;2023-03-02T14:24:05;9.60;99.90
43049;DHT22;28673;44.412;11.918;2023-03-02T14:26:40;9.60;99.90
43049;DHT22;28673;44.412;11.918;2023-03-02T14:31:47;9.70;99.90
43049;DHT22;28673;44.412;11.918;2023-03-02T14:34:14;9.70;99.90
43049;DHT22;28673;44.412;11.918;2023-03-02T14:36:41;9.60;99.90
43049;DHT22;28673;44.412;11.918;2023-03-02T14:42:05;9.70;99.90
43049;DHT22;28673;44.412;11.918;2023-03-02T14:44:31;9.70;99.90
43049;DHT22;28673;44.412;11.918;2023-03-02T14:46:57;9.70;99.90
43049;DHT22;28673;44.412;11.918;2023-03-02T14:49:23;9.70;99.90
43049;DHT22;28673;44.412;11.918;2023-03-02T14:54:34;9.60;99.90
43049;DHT22;28673;44.412;11.918;2023-03-02T14:57:01;9.60;99.90
43049;DHT22;28673;44.412;11.918;2023-03-02T14:59:27;9.70;99.90
43049;DHT22;28673;44.412;11.918;2023-03-02T15:01:53;9.70;99.90
43049;DHT22;28673;44.412;11.918;2023-03-02T15:04:18;9.70;99.90
43049;DHT22;28673;44.412;11.918;2023-03-02T15:06:45;9.70;99.90
43049;DHT22;28673;44.412;11.918;2023-03-02T15:09:11;9.70;99.90
43049;DHT22;28673;44.412;11.918;2023-03-02T15:11:38;9.70;99.90
43049;DHT22;28673;44.412;11.918;2023-03-02T15:14:04;9.70;99.90
43049;DHT22;28673;44.412;11.918;2023-03-02T15:16:30;9.70;99.90
43049;DHT22;28673;44.412;11.918;2023-03-02T15:18:56;9.80;99.90
43049;DHT22;28673;44.412;11.918;2023-03-02T15:21:23;9.80;99.90
43049;DHT22;28673;44.412;11.918;2023-03-02T15:23:49;9.80;99.90
43049;DHT22;28673;44.412;11.918;2023-03-02T15:26:15;9.80;99.90
43049;DHT22;28673;44.412;11.918;2023-03-02T15:28:42;9.80;99.90
43049;DHT22;28673;44.412;11.918;2023-03-02T15:31:14;9.80;99.90
43049;DHT22;28673;44.412;11.918;2023-03-02T15:33:42;9.80;99.90
43049;DHT22;28673;44.412;11.918;2023-03-02T15:36:11;9.80;99.90
43049;DHT22;28673;44.412;11.918;2023-03-02T15:38:38;9.70;99.90
43049;DHT22;28673;44.412;11.918;2023-03-02T15:41:11;9.70;99.90
43049;DHT22;28673;44.412;11.918;2023-03-02T15:43:38;9.70;99.90
43049;DHT22;28673;44.412;11.918;2023-03-02T15:46:05;9.70;99.90
43049;DHT22;28673;44.412;11.918;2023-03-02T15:48:31;9.70;99.90
43049;DHT22;28673;44.412;11.918;2023-03-02T15:50:58;9.70;99.90
43049;DHT22;28673;44.412;11.918;2023-03-02T15:53:25;9.70;99.90
43049;DHT22;28673;44.412;11.918;2023-03-02T15:55:51;9.70;99.90
43049;DHT22;28673;44.412;11.918;2023-03-02T15:58:17;9.70;99.90
43049;DHT22;28673;44.412;11.918;2023-03-02T16:00:43;9.60;99.90
43049;DHT22;28673;44.412;11.918;2023-03-02T16:03:09;9.60;99.90
43049;DHT22;28673;44.412;11.918;2023-03-02T16:05:37;9.60;99.90
43049;DHT22;28673;44.412;11.918;2023-03-02T16:08:03;9.60;99.90
43049;DHT22;28673;44.412;11.918;2023-03-02T16:10:29;9.60;99.90
43049;DHT22;28673;44.412;11.918;2023-03-02T16:13:00;9.60;99.90
43049;DHT22;28673;44.412;11.918;2023-03-02T16:15:27;9.60;99.90
43049;DHT22;28673;44.412;11.918;2023-03-02T16:17:53;9.50;99.90
43049;DHT22;28673;44.412;11.918;2023-03-02T16:20:18;9.50;99.90
43049;DHT22;28673;44.412;11.918;2023-03-02T16:22:44;9.50;99.90
43049;DHT22;28673;44.412;11.918;2023-03-02T16:25:10;9.40;99.90
43049;DHT22;28673;44.412;11.918;2023-03-02T16:27:36;9.40;99.90
43049;DHT22;28673;44.412;11.918;2023-03-02T16:30:02;9.40;99.90
43049;DHT22;28673;44.412;11.918;2023-03-02T16:32:28;9.40;99.90
43049;DHT22;28673;44.412;11.918;2023-03-02T16:34:54;9.40;99.90
43049;DHT22;28673;44.412;11.918;2023-03-02T16:37:20;9.40;99.90
43049;DHT22;28673;44.412;11.918;2023-03-02T16:39:46;9.40;99.90
43049;DHT22;28673;44.412;11.918;2023-03-02T16:42:12;9.40;99.90
43049;DHT22;28673;44.412;11.918;2023-03-02T16:44:38;9.40;99.90
43049;DHT22;28673;44.412;11.918;2023-03-02T16:47:04;9.30;99.90
43049;DHT22;28673;44.412;11.918;2023-03-02T16:49:31;9.30;99.90